Hale Center, TX (79041)

1:45 PM CST on December 26, 2014 (GMT -0600)
Hale County | Change Station
CLOSE
Current Station
Airport
Location: Plainview,
Elevation: 3373 ft
Nearby Weather Stations

Elev 3373 ft 34.17 °N, 101.72 °W | Updated 10 minutes ago

Mostly Cloudy
Mostly Cloudy
42 °F
Feels Like 36 °F
N
10
Wind Variable Wind from NW

Today
High -- | Low -- °F
--% Chance of Precip.
Yesterday
High -- | Low -- °F
Precip. -- in
7:51 AM 5:44 PM
Waxing Crescent, 28% visible
Pressure 29.87 in
Visibility 10.0 miles
Clouds Mostly Cloudy 11000 ft
Windchill 36 °F
Dew Point 27 °F
Humidity 56%
Rainfall 0.00 in
Snow Depth Not available.
UV 2 out of 12
Pollen 8.70 out of 12
Air Quality Not available.
Flu Activity Not available.
METAR KPVW 261935Z AUTO 32009KT 10SM BKN110 06/M03 A2987 RMK AO2 T00571026

More Conditions Fewer Conditions

Pressure 29.87 in
Visibility 10.0 miles
Clouds Mostly Cloudy 11000 ft
Windchill 36 °F
Dew Point 27 °F
Humidity 56%
Rainfall 0.00 in
Snow Depth Not available.
UV 2 out of 12
Pollen 8.70 out of 12
Air Quality Not available.
Flu Activity Not available.
METAR KPVW 261935Z AUTO 32009KT 10SM BKN110 06/M03 A2987 RMK AO2 T00571026

More Conditions Fewer Conditions

10-Day Weather Forecast

Almanac

Astronomy

Dec. 26, 2014 Rise Set
Actual Time
Civil Twilight
Nautical Twilight
Astronomical Twilight
Moon
Length of Visible Light
Length of Day
Tomorrow will be .
, % of the Moon is Illuminated

Today's Extremes

State Highs State Lows

Community

WunderPhotos

Upload Photos

1,780,680 photos uploaded!

WunderBlogs® & News

Nearby

Air Quality

  Air Quality AQ Index Pollutant
Not available.

Snow Depth

Station Depth Elevation

Earthquake Activity

City Distance Mag. Time & Date
Minimum magnitude displayed is 2.5.

Coastal Water Temperatures

Place Temperature

Nearby Weather Stations